Aérodrome :







RETROUVEZ-NOUS SUR...

 
LOGIN :

S'inscrire | Disclaimer

   EN    FR    IT 

 









Légende :    VFR   VFR Marginal   IFR   IFR Intensif   IFR Très Intensif
Visi : 
Plafond : 
>= 8 km
>= 3000ft
5 à 8 km
1000 à 3000 ft
1500m à 5 km
500 à 1000 ft
800 à 1500m
200 à 500 ft
< 800m
< 200 ft
Symboles :   Orages  Brouillard  Fortes neiges  Fortes précipitations  Vent > 20 kt






- Altitude de l'aérodrome : 107 ft


KBVY - Beverly Municipal

DERNIER METAR :
  • 201629Z 34008KT 5SM BR BKN009 OVC037 03/02 A2988 RMK AO2 RAE29 P0001 T00330017

METARs EXPIRÉS :
  • 201553Z 34007KT 6SM -RA BR OVC010 03/02 A2990 RMK AO2 RAB43 SLP120 P0000 T00330017
  • 201515Z 34005KT 10SM OVC010 03/02 A2990 RMK AO2 T00330017
  • 201453Z 34007KT 10SM OVC009 03/02 A2990 RMK AO2 CIG 006V011 SLP122 60000 T00330017 51008
  • 201359Z 34006KT 10SM BKN009 OVC014 03/02 A2989 RMK AO2 CIG 007V012 T00330017

TAF N/A



MET'MAP, la Météo Aéronautique d'un coup d'oeil ! - Copyright ORBIFLY Décembre 2007 - Disclaimer

ORBIFLY MET'MAP TEAM :

Programmation & Développement : Alexandra Zaïnal
Conception & Développement : Baudouin d'Aumeries
Co-Programmation & Développement : Marc-Olivier Méhu
Soutien technique & logistique : Manuel Goepfert

Contact : metmap@orbifly.com




SOURCES & CREDITS :

   NOAA